Huvudsida
METAR-TAF:

METAR-TAF

Flygplatser :

Khorram Abad

Khorramabad, Iran

latitud: 33-26-11N, longitud: 048-17-09E, höjd: 1155 m

Aktuellt väderrapport

Denna rapport gjordes för 55 minuter sedan, klockan 13:50 UTC
Vind 10 kt från väst
Temperatur 39°C
Fuktighet 12%
Tryck 1009 hPa
Sikt 10 km eller mer
Inga moln under 1 500 m eller inga cumulonimbus

METAR: OICK 261350Z 26010KT CAVOK 39/05 Q1009

Tid: 19:15 (14:45 UTC)


TAF: saknas

Aktuella väderrapporter och prognoser från 4000 flygplatser (METAR- och TAF-rapporter).

De tillgängliga stationerna syns som gula och röda prickar på kartan.

För musen över prickarna för att se namnen på stationerna.

Klicka sedan för att få väderrapporter och prognoser.

För att ändra kartan: Klicka på de gröna knapparna med ett svart kors på för att zooma in; den gröna knappen med ett streck på för att zooma ut; eller på de gröna pilarna för angränsande kartor.


METAR-TAF: